Startpagina
METAR-TAF:

METAR-TAF

Vliegvelden :

Caracas, Venezuela

Aeropuerto Internacional de Maiquetía Simón Bolívar

breedte: 10-36N, lengte: 066-59W, hoogte: 43 m

Actueel weer

Dit bericht is 32 minuten geleden gemaakt, om 03:00 UTC
Weinig wind
Temperatuur 28°C
Vochtigheid 70%
Druk 1012 hPa
Zicht 10 km of meer
Weinig wolken op 1600 ft

METAR: SVMI 230300Z 00000KT 9999 FEW016 28/22 Q1012

Tijdstip: 23:32 (03:32 UTC)

Verwachting

Dit bericht is 5 uur en het 32 minuten geleden gemaakt, om 22:00 UTC
Verwachting geldig van 23 om 00 UTC tot 24 om 00 UTC
Wind 10 kt uit het oostnoordoosten
Zicht 10 km of meer
Verspreide wolken op 1600 ft
Wijzigt naar
van 23 om 00 UTC tot 23 om 04 UTC
Wind 5 kt uit het noordoosten
Weinig wolken op 1600 ft
Verspreide wolken op 10000 ft

TAF: SVMI 222200Z 2300/2400 07010KT 9999 SCT016 TX33/19Z TN25/08Z BECMG 2300/2304 04005KT FEW016 SCT100

Waarnemingen en weersverwachtingen van meer dan 4000 vliegvelden (METAR en TAF).

De beschikbare stations zijn de gele en rode punten op de kaart.

Ga met uw muis naar het station om de naam te zien.

Klik dan om waarnemingen en weersverwachtingen te zien.

kaart wijzigen: klik op de groene knoppen met een zwart kruis om in te zoomen, op de groene knop met een streepje om uit te zoomen of op de groene pijlen voor aangrenzende kaarten.


METAR-TAF: